Time;durP1;ratioP1;P1;durP2;ratioP2;P2;SDS_P1;SDS_P2;PMS_P1;PMS_P2;Temp;Humidity;BMP_temperature;BMP_pressure;BME280_temperature;BME280_humidity;BME280_pressure;Samples;Min_cycle;Max_cycle;Signal;HPM_P1;HPM_P2
2022/08/08 00:00:01;;;;;;;4.90;4.50;;;20.60;58.80;;;23.02;45.86;102381.34;5114345;27;20191;-64
2022/08/08 00:03:03;;;;;;;4.20;3.77;;;20.40;59.20;;;22.89;46.23;102383.06;5115862;28;20215;-64
2022/08/08 00:06:00;;;;;;;6.23;3.70;;;20.30;59.40;;;22.82;45.92;102382.25;5115692;28;20195;-64
2022/08/08 00:08:40;;;;;;;4.97;3.70;;;20.20;59.80;;;22.78;46.21;102381.06;5109834;28;20220;-64
2022/08/08 00:11:26;;;;;;;4.03;3.50;;;20.20;60.00;;;22.77;46.65;102379.41;5095190;28;20271;-63
2022/08/08 00:14:27;;;;;;;3.40;3.10;;;20.10;60.50;;;22.77;46.74;102375.91;5095395;28;20185;-64
2022/08/08 00:17:22;;;;;;;4.27;3.77;;;20.20;60.80;;;22.82;46.68;102371.53;5095090;28;20197;-64
2022/08/08 00:20:00;;;;;;;4.40;4.00;;;20.20;60.90;;;22.86;46.54;102372.75;5095382;28;20184;-64
2022/08/08 00:22:38;;;;;;;6.10;4.77;;;20.20;61.40;;;22.85;46.20;102381.84;5094897;28;20580;-63
2022/08/08 00:25:14;;;;;;;3.63;3.30;;;20.20;60.70;;;22.83;46.54;102378.56;5095328;28;20192;-65
2022/08/08 00:27:44;;;;;;;5.47;3.60;;;20.20;60.90;;;22.85;46.61;102384.53;5095290;28;20201;-65
2022/08/08 00:30:13;;;;;;;4.57;4.13;;;20.20;60.80;;;22.89;46.65;102382.25;5094909;28;20216;-64
2022/08/08 00:32:50;;;;;;;6.60;4.70;;;20.20;60.90;;;22.87;46.48;102379.75;5113362;28;20735;-64
2022/08/08 00:35:40;;;;;;;4.97;4.17;;;20.20;60.80;;;22.83;46.48;102377.72;5115366;28;20192;-64
2022/08/08 00:38:33;;;;;;;4.67;4.03;;;20.20;60.60;;;22.82;46.88;102382.25;5115233;28;20206;-64
2022/08/08 00:42:19;;;;;;;8.10;4.20;;;20.20;60.80;;;22.80;47.06;102378.16;5114599;28;20242;-65
2022/08/08 00:45:40;;;;;;;5.87;4.00;;;20.20;61.10;;;22.84;46.87;102384.75;5072082;28;20224;-65
2022/08/08 00:49:01;;;;;;;4.33;3.93;;;20.30;61.00;;;22.88;47.23;102377.91;5102411;28;20200;-65
2022/08/08 00:52:08;;;;;;;5.50;4.13;;;20.30;61.00;;;22.94;46.69;102384.28;5093920;28;20209;-65
2022/08/08 00:55:16;;;;;;;4.60;4.13;;;20.40;60.80;;;22.98;46.58;102380.13;5095195;28;20634;-65
2022/08/08 00:58:45;;;;;;;4.77;4.30;;;20.40;60.70;;;22.99;46.64;102381.78;5094370;28;20522;-63
2022/08/08 01:01:31;;;;;;;4.90;4.17;;;20.40;60.70;;;23.04;46.54;102379.25;5093681;28;20290;-64
2022/08/08 01:04:59;;;;;;;6.63;4.60;;;20.50;60.60;;;22.99;46.62;102379.09;5097171;28;20212;-64
2022/08/08 01:08:16;;;;;;;7.07;4.67;;;20.50;60.70;;;22.99;46.56;102377.22;5114761;27;20203;-64
2022/08/08 01:11:40;;;;;;;4.37;3.97;;;20.50;60.50;;;22.99;46.55;102382.59;5113233;28;20249;-64
2022/08/08 01:14:55;;;;;;;5.90;4.60;;;20.50;61.10;;;22.96;46.58;102376.84;5114649;28;20207;-64
2022/08/08 01:18:17;;;;;;;7.73;4.47;;;20.50;60.10;;;22.92;46.54;102379.13;5114725;28;20192;-64
2022/08/08 01:21:50;;;;;;;5.60;4.57;;;20.50;60.40;;;22.90;46.65;102376.66;5112822;28;20200;-64
2022/08/08 01:25:18;;;;;;;4.90;4.40;;;20.40;60.50;;;22.88;46.77;102362.63;5114204;28;20215;-64
2022/08/08 01:28:11;;;;;;;4.57;4.07;;;20.40;61.00;;;22.92;46.53;102369.19;5114287;28;20590;-64
2022/08/08 01:31:43;;;;;;;4.40;3.73;;;20.30;61.00;;;22.90;46.61;102365.91;5113750;28;20666;-63
2022/08/08 01:35:40;;;;;;;4.03;3.67;;;20.40;61.10;;;22.90;46.82;102363.22;5102286;28;20241;-65
2022/08/08 01:39:05;;;;;;;5.63;4.00;;;20.40;61.10;;;22.92;46.84;102366.50;5065731;28;20288;-65
2022/08/08 01:41:50;;;;;;;5.20;4.33;;;20.40;60.90;;;22.96;46.52;102361.53;5070798;28;20240;-62
2022/08/08 01:44:50;;;;;;;5.10;4.10;;;20.40;60.70;;;22.90;46.26;102362.41;5093954;28;20202;-64
2022/08/08 01:47:45;;;;;;;4.33;4.03;;;20.40;60.50;;;22.88;46.28;102369.84;5093705;28;20188;-64
2022/08/08 01:50:55;;;;;;;4.47;4.07;;;20.30;60.60;;;22.85;46.55;102370.28;5112172;27;20219;-64
2022/08/08 01:53:45;;;;;;;5.17;4.30;;;20.30;61.00;;;22.88;46.94;102376.06;5113682;28;20211;-64
2022/08/08 01:56:57;;;;;;;4.73;4.17;;;20.30;61.10;;;22.94;46.70;102365.50;5114039;28;20191;-64
2022/08/08 01:59:59;;;;;;;4.63;4.23;;;20.30;61.00;;;22.96;46.69;102369.59;5114177;28;20187;-63
2022/08/08 02:02:58;;;;;;;6.07;3.80;;;20.40;61.10;;;23.03;46.46;102373.06;5093076;28;20227;-64
2022/08/08 02:05:44;;;;;;;5.53;4.10;;;20.40;60.80;;;23.08;46.29;102375.09;5093699;28;20181;-64
2022/08/08 02:08:44;;;;;;;4.10;3.70;;;20.40;60.70;;;23.10;46.25;102373.03;5111069;28;20287;-64
2022/08/08 02:11:33;;;;;;;4.90;4.50;;;20.40;60.60;;;23.15;46.26;102376.72;5113652;28;20187;-63
2022/08/08 02:14:34;;;;;;;5.13;4.63;;;20.50;60.50;;;23.16;46.05;102382.88;5113886;28;20179;-63
2022/08/08 02:17:27;;;;;;;4.63;4.30;;;20.50;60.50;;;23.17;46.23;102374.63;5113828;28;20206;-64
2022/08/08 02:20:25;;;;;;;4.43;4.03;;;20.60;60.50;;;23.16;46.14;102388.25;5114055;28;20196;-64
2022/08/08 02:23:25;;;;;;;5.10;4.30;;;20.60;60.30;;;23.10;45.91;102384.59;5116475;28;20210;-65
2022/08/08 02:26:08;;;;;;;4.27;3.83;;;20.50;59.90;;;23.00;46.13;102383.41;5116269;28;20198;-64
2022/08/08 02:28:52;;;;;;;4.23;3.83;;;20.40;60.00;;;22.87;46.41;102381.63;5117646;28;20223;-65
2022/08/08 02:31:52;;;;;;;5.83;4.40;;;20.30;60.40;;;22.73;46.67;102383.56;5117420;28;20215;-65
2022/08/08 02:34:59;;;;;;;6.43;4.47;;;20.20;61.10;;;22.62;47.08;102381.56;5118033;28;20192;-64
2022/08/08 02:38:13;;;;;;;6.07;4.00;;;20.10;61.20;;;22.51;47.74;102392.91;5118315;28;20172;-64
2022/08/08 02:41:07;;;;;;;5.80;4.23;;;20.00;61.60;;;22.39;47.63;102389.28;5097366;28;20274;-64
2022/08/08 02:44:28;;;;;;;4.50;4.10;;;19.80;62.00;;;22.23;48.05;102387.84;5096966;28;20646;-64
2022/08/08 02:48:12;;;;;;;4.33;4.00;;;19.70;62.60;;;22.06;48.49;102386.66;5114280;28;20196;-63
2022/08/08 02:51:46;;;;;;;4.50;4.03;;;19.50;62.90;;;21.91;49.09;102387.94;5116813;28;20207;-64
2022/08/08 02:54:50;;;;;;;4.90;4.13;;;19.40;63.70;;;21.83;49.48;102385.41;5116424;28;20199;-64
2022/08/08 02:58:39;;;;;;;5.23;4.27;;;19.20;65.10;;;21.68;49.94;102387.53;5108810;27;20196;-64
2022/08/08 03:02:07;;;;;;;6.40;4.63;;;19.20;64.80;;;21.62;50.19;102388.31;5115108;28;20596;-64
2022/08/08 03:05:57;;;;;;;4.37;3.97;;;19.10;65.30;;;21.58;50.20;102385.25;5116806;28;20199;-64
2022/08/08 03:09:30;;;;;;;5.77;3.73;;;19.00;65.60;;;21.66;50.21;102389.56;5091971;28;20298;-64
2022/08/08 03:12:39;;;;;;;7.57;4.50;;;19.10;66.00;;;21.77;50.06;102389.78;5116228;27;20211;-64
2022/08/08 03:16:10;;;;;;;5.87;4.13;;;19.10;65.50;;;21.81;49.69;102382.97;5117180;28;20195;-64
2022/08/08 03:18:57;;;;;;;4.40;4.00;;;19.20;65.20;;;21.88;49.63;102383.81;5099753;28;20245;-66
2022/08/08 03:21:24;;;;;;;5.43;5.00;;;19.30;64.70;;;21.91;49.36;102387.94;5118089;28;20226;-64
2022/08/08 03:24:08;;;;;;;9.10;4.63;;;19.30;64.70;;;21.91;49.30;102387.94;5118873;28;20221;-64
2022/08/08 03:26:47;;;;;;;7.73;5.23;;;19.20;64.70;;;21.87;49.41;102386.72;5114530;28;20200;-63
2022/08/08 03:29:22;;;;;;;4.73;4.23;;;19.20;64.90;;;21.88;49.59;102385.66;5098498;28;20575;-65
2022/08/08 03:34:57;;;;;;;6.27;4.33;;;19.30;65.30;;;21.97;49.34;102381.72;5098764;28;20196;-65
2022/08/08 03:37:24;;;;;;;10.07;6.50;;;19.30;65.00;;;22.06;49.19;102386.66;5099244;28;20196;-64
2022/08/08 03:40:16;;;;;;;5.03;4.43;;;19.40;65.70;;;22.12;49.15;102395.72;5098435;28;20187;-64
2022/08/08 03:42:58;;;;;;;4.80;4.40;;;19.40;64.40;;;22.14;48.95;102393.66;5108393;28;20286;-63
2022/08/08 03:45:46;;;;;;;5.10;4.60;;;19.50;64.50;;;22.13;48.74;102386.66;5116900;28;20192;-64
2022/08/08 03:48:34;;;;;;;4.73;4.27;;;19.50;64.40;;;22.16;48.68;102394.28;5116502;28;20249;-64
2022/08/08 03:51:21;;;;;;;5.53;4.80;;;19.50;64.20;;;22.19;49.05;102392.00;5095423;28;20208;-64
2022/08/08 03:54:09;;;;;;;4.40;4.00;;;19.60;64.20;;;22.24;48.90;102391.38;5111356;28;20195;-64
2022/08/08 03:56:58;;;;;;;6.50;4.60;;;19.60;64.10;;;22.29;48.50;102396.94;5117275;28;20191;-65
2022/08/08 03:59:46;;;;;;;5.60;4.57;;;19.60;63.90;;;22.33;48.67;102402.69;5125222;27;20195;-64
2022/08/08 04:02:33;;;;;;;4.93;4.53;;;19.70;63.60;;;22.37;48.42;102410.09;5125987;28;20273;-65
2022/08/08 04:05:18;;;;;;;4.97;4.50;;;19.70;63.50;;;22.39;48.56;102402.69;5126410;28;20296;-63
2022/08/08 04:07:56;;;;;;;6.50;4.87;;;19.70;63.30;;;22.45;48.12;102422.47;5120282;28;20188;-64
2022/08/08 04:10:24;;;;;;;5.60;5.00;;;19.80;63.40;;;22.48;48.40;102414.84;5118342;28;20212;-65
2022/08/08 04:13:00;;;;;;;6.83;4.83;;;19.80;64.00;;;22.51;48.20;102417.06;5117805;28;20234;-64
2022/08/08 04:15:44;;;;;;;5.50;4.80;;;19.80;63.10;;;22.55;47.96;102418.31;5114846;28;20223;-64
2022/08/08 04:18:30;;;;;;;5.37;4.97;;;19.90;63.10;;;22.58;47.85;102419.75;5115932;28;20190;-64
2022/08/08 04:20:57;;;;;;;5.13;4.37;;;19.90;63.00;;;22.58;48.01;102420.56;5116329;28;20188;-64
2022/08/08 04:23:24;;;;;;;7.40;4.50;;;19.90;62.90;;;22.59;47.78;102419.53;5117564;28;20215;-64
2022/08/08 04:26:00;;;;;;;5.30;4.80;;;19.90;62.70;;;22.59;47.77;102424.06;5116245;28;20219;-64
2022/08/08 04:28:36;;;;;;;8.17;5.20;;;19.90;62.70;;;22.58;47.69;102428.59;5115352;28;20580;-63
2022/08/08 04:31:07;;;;;;;6.00;4.50;;;20.00;62.80;;;22.60;47.52;102423.88;5113335;28;20290;-63
2022/08/08 04:33:36;;;;;;;8.53;5.67;;;20.00;62.60;;;22.61;47.61;102428.22;5117292;28;20188;-63
2022/08/08 04:36:08;;;;;;;7.27;6.33;;;20.00;62.50;;;22.64;47.46;102422.44;5115399;27;20191;-62
2022/08/08 04:38:36;;;;;;;6.63;5.50;;;20.00;62.40;;;22.67;47.39;102432.75;5114634;28;20641;-64
2022/08/08 04:41:08;;;;;;;9.10;7.57;;;20.00;62.40;;;22.66;47.34;102433.78;5114822;28;20555;-63
2022/08/08 04:43:45;;;;;;;6.83;6.23;;;20.00;61.90;;;22.58;47.19;102428.59;5115150;28;20215;-63
2022/08/08 04:46:20;;;;;;;9.17;6.80;;;19.90;61.80;;;22.49;47.10;102429.88;5115339;28;20319;-63
2022/08/08 04:48:51;;;;;;;10.20;6.60;;;19.80;61.90;;;22.44;47.48;102431.56;5098638;27;20188;-63
2022/08/08 04:51:18;;;;;;;6.33;5.20;;;19.70;62.20;;;22.37;47.20;102426.19;5114517;28;20211;-65
2022/08/08 04:53:54;;;;;;;6.80;6.17;;;19.70;62.80;;;22.36;47.87;102419.19;5114944;28;20725;-63
2022/08/08 04:56:41;;;;;;;9.33;6.47;;;19.60;63.00;;;22.36;47.80;102423.75;5114384;28;20705;-64
2022/08/08 04:59:12;;;;;;;5.73;5.13;;;19.60;63.00;;;22.35;47.83;102422.91;5114662;28;20270;-63
2022/08/08 05:01:41;;;;;;;5.90;5.30;;;19.60;63.10;;;22.35;47.81;102417.53;5113739;28;20207;-64
2022/08/08 05:04:15;;;;;;;5.57;5.07;;;19.60;63.00;;;22.36;47.95;102426.41;5114094;28;20261;-65
2022/08/08 05:06:44;;;;;;;5.43;4.47;;;19.60;63.30;;;22.39;48.37;102424.16;5114148;28;20222;-63
2022/08/08 05:09:11;;;;;;;6.17;5.40;;;19.60;63.30;;;22.42;48.00;102429.06;5113807;28;20229;-64
2022/08/08 05:11:42;;;;;;;7.67;5.33;;;19.70;63.20;;;22.45;48.04;102425.16;5113990;28;20208;-63
2022/08/08 05:14:15;;;;;;;8.33;5.40;;;19.70;63.20;;;22.48;48.03;102433.63;5114936;28;20188;-62
2022/08/08 05:16:47;;;;;;;6.77;5.60;;;19.70;63.20;;;22.49;48.17;102435.25;5114168;28;20184;-63
2022/08/08 05:19:28;;;;;;;5.70;5.13;;;19.70;63.30;;;22.52;47.92;102434.84;5104339;28;20648;-64
2022/08/08 05:22:15;;;;;;;7.33;5.13;;;19.80;63.40;;;22.58;47.65;102428.59;5093716;28;20215;-63
2022/08/08 05:24:44;;;;;;;6.87;4.87;;;19.90;63.10;;;22.65;47.25;102434.00;5094223;28;20264;-64
2022/08/08 05:27:15;;;;;;;5.47;4.73;;;19.90;62.80;;;22.70;47.33;102436.88;5093982;28;20194;-64
2022/08/08 05:29:44;;;;;;;5.13;4.50;;;19.90;62.40;;;22.75;46.87;102439.72;5093658;28;20227;-64
2022/08/08 05:32:16;;;;;;;7.07;5.17;;;20.00;61.70;;;22.79;47.11;102436.44;5093458;28;20212;-62
2022/08/08 05:34:48;;;;;;;7.03;5.37;;;20.00;61.80;;;22.80;46.99;102431.84;5099396;28;20215;-64
2022/08/08 05:37:22;;;;;;;5.60;4.97;;;20.00;61.80;;;22.84;46.77;102435.78;5113707;28;20191;-62
2022/08/08 05:40:07;;;;;;;5.70;5.13;;;20.00;61.40;;;22.85;46.27;102430.19;5113648;28;20200;-64
2022/08/08 05:42:41;;;;;;;5.77;5.20;;;20.00;61.00;;;22.84;46.48;102439.28;5114093;28;20214;-64
2022/08/08 05:45:12;;;;;;;5.50;4.70;;;20.10;61.40;;;22.88;46.34;102439.69;5113604;28;20288;-64
2022/08/08 05:48:00;;;;;;;4.90;4.50;;;20.10;61.30;;;22.94;46.18;102444.19;5112446;28;20191;-65
2022/08/08 05:50:35;;;;;;;6.53;5.20;;;20.10;60.80;;;23.00;46.09;102447.88;5122043;27;20507;-64
2022/08/08 05:53:06;;;;;;;5.60;4.37;;;20.10;60.70;;;23.03;45.73;102453.66;5113911;28;20208;-63
2022/08/08 05:55:55;;;;;;;4.70;4.27;;;20.20;60.60;;;23.09;45.77;102457.34;5113323;28;20553;-64
2022/08/08 05:58:43;;;;;;;4.77;4.37;;;20.30;60.70;;;23.15;45.75;102456.50;5113390;28;20188;-64
2022/08/08 06:01:32;;;;;;;6.03;4.20;;;20.30;60.70;;;23.22;45.79;102463.50;5112963;28;20211;-64
2022/08/08 06:04:23;;;;;;;5.40;4.70;;;20.40;60.60;;;23.30;45.62;102465.06;5113206;28;20191;-64
2022/08/08 06:06:53;;;;;;;5.80;4.67;;;20.50;60.30;;;23.40;45.34;102457.41;5112002;28;20245;-64
2022/08/08 06:09:31;;;;;;;7.87;4.33;;;20.60;60.10;;;23.48;45.15;102462.53;5095960;28;20258;-63
2022/08/08 06:12:20;;;;;;;4.73;3.90;;;20.70;59.90;;;23.57;44.73;102466.59;5092118;28;20220;-62
2022/08/08 06:15:00;;;;;;;5.63;4.67;;;20.70;60.00;;;23.62;44.46;102468.63;5092942;28;20220;-64
2022/08/08 06:17:33;;;;;;;6.27;3.87;;;20.80;59.10;;;23.62;44.24;102474.84;5093067;28;20680;-63
2022/08/08 06:20:20;;;;;;;4.03;3.70;;;20.80;59.10;;;23.58;44.49;102469.06;5094431;28;20243;-62
2022/08/08 06:22:49;;;;;;;4.43;3.83;;;20.80;59.30;;;23.59;44.73;102480.63;5093230;28;20274;-63
2022/08/08 06:25:16;;;;;;;4.97;3.77;;;20.70;59.50;;;23.64;44.72;102475.44;5092980;28;20537;-64
2022/08/08 06:28:08;;;;;;;6.27;4.27;;;20.80;59.70;;;23.73;45.17;102470.59;5092891;28;20224;-63
2022/08/08 06:30:40;;;;;;;5.70;3.83;;;20.80;59.90;;;23.82;44.90;102480.88;5092583;28;20245;-65
2022/08/08 06:33:11;;;;;;;6.63;3.27;;;20.90;60.10;;;23.88;45.04;102479.19;5093293;28;20200;-64
2022/08/08 06:35:46;;;;;;;4.70;3.80;;;20.90;60.10;;;23.91;44.85;102474.19;5092986;28;20219;-64
2022/08/08 06:38:36;;;;;;;5.77;3.90;;;21.00;60.20;;;23.94;44.47;102478.28;5102477;28;20196;-62
2022/08/08 06:41:11;;;;;;;6.33;3.80;;;21.00;60.20;;;23.96;45.26;102482.41;5111576;28;20192;-65
2022/08/08 06:43:46;;;;;;;6.30;3.90;;;21.00;60.40;;;24.02;45.27;102481.53;5113253;28;20221;-63
2022/08/08 06:46:23;;;;;;;6.43;3.87;;;21.10;60.40;;;24.13;45.09;102478.16;5113357;28;20187;-64
2022/08/08 06:48:59;;;;;;;6.27;4.20;;;21.20;60.60;;;24.26;45.25;102476.38;5116006;28;20215;-64
2022/08/08 06:51:27;;;;;;;4.33;3.20;;;21.20;60.80;;;24.37;44.70;102478.31;5113422;27;20219;-64
2022/08/08 06:54:14;;;;;;;7.83;3.60;;;21.30;60.70;;;24.47;45.06;102473.25;5113011;28;20210;-65
2022/08/08 06:56:44;;;;;;;4.07;3.23;;;21.40;60.70;;;24.60;45.33;102478.50;5113432;28;20601;-64
2022/08/08 06:59:17;;;;;;;7.37;3.10;;;21.50;60.80;;;24.75;44.52;102481.63;5113666;28;20199;-65
2022/08/08 07:01:51;;;;;;;6.97;2.73;;;21.70;60.70;;;24.86;44.67;102475.53;5113385;28;20208;-64
2022/08/08 07:04:53;;;;;;;3.67;1.97;;;21.70;60.40;;;24.95;44.09;102476.03;5114225;28;20192;-65
2022/08/08 07:07:33;;;;;;;4.20;2.47;;;21.90;60.10;;;25.07;43.98;102480.44;5113263;28;20188;-63
2022/08/08 07:10:07;;;;;;;4.23;2.20;;;22.00;59.80;;;25.23;43.89;102482.47;5116035;28;20270;-64
2022/08/08 07:12:41;;;;;;;4.17;2.80;;;22.10;59.70;;;25.34;43.72;102481.69;5116470;28;20617;-64
2022/08/08 07:15:11;;;;;;;2.20;2.00;;;22.30;59.60;;;25.47;43.66;102480.72;5116626;28;20198;-65
2022/08/08 07:18:08;;;;;;;3.43;2.73;;;22.30;59.30;;;25.56;43.11;102484.72;5116741;28;20184;-66
2022/08/08 07:21:05;;;;;;;3.40;2.60;;;22.50;59.20;;;25.62;43.39;102483.00;5117283;28;20547;-64
2022/08/08 07:24:13;;;;;;;3.87;2.10;;;22.50;58.90;;;25.65;43.14;102488.72;5116934;27;20253;-63
2022/08/08 07:26:45;;;;;;;3.00;2.50;;;22.60;58.70;;;25.69;42.71;102495.31;5102678;28;20314;-64
2022/08/08 07:29:18;;;;;;;3.03;2.20;;;22.60;58.10;;;25.78;42.86;102493.09;5096205;28;20241;-63
2022/08/08 07:32:07;;;;;;;5.37;2.70;;;22.70;57.90;;;25.86;42.52;102496.31;5111356;28;20224;-65
2022/08/08 07:34:36;;;;;;;4.50;2.17;;;22.80;58.10;;;25.95;42.33;102497.59;5116868;28;20268;-65
2022/08/08 07:37:27;;;;;;;2.97;2.60;;;22.90;58.00;;;26.04;41.92;102498.88;5116686;28;20240;-65
2022/08/08 07:40:16;;;;;;;2.10;1.90;;;22.90;58.00;;;26.17;42.12;102498.69;5095792;28;20189;-64
2022/08/08 07:42:55;;;;;;;4.33;2.53;;;23.00;57.90;;;26.30;41.77;102505.72;5096229;28;20654;-65
2022/08/08 07:45:23;;;;;;;5.90;2.20;;;23.10;57.60;;;26.40;41.73;102503.25;5096780;28;20195;-64
2022/08/08 07:48:02;;;;;;;2.30;2.10;;;23.20;57.30;;;26.46;41.17;102504.22;5095950;28;20262;-64
2022/08/08 07:50:32;;;;;;;4.90;2.50;;;23.30;56.90;;;26.56;41.05;102507.94;5128539;27;20207;-63
2022/08/08 07:53:17;;;;;;;4.50;2.10;;;23.40;57.10;;;27.06;40.54;102513.59;5130938;27;20208;-63
2022/08/08 07:56:10;;;;;;;3.03;2.60;;;23.50;57.30;;;28.03;39.13;102509.72;5115859;28;20202;-64
2022/08/08 07:58:44;;;;;;;2.90;2.50;;;23.90;55.90;;;29.10;36.88;102510.09;5116284;28;20198;-65
2022/08/08 08:01:26;;;;;;;4.97;2.40;;;24.40;55.00;;;30.23;35.43;102510.88;5115201;28;20191;-63
2022/08/08 08:04:16;;;;;;;3.60;2.27;;;25.00;54.20;;;31.39;34.45;102512.19;5115454;28;20668;-63
2022/08/08 08:06:45;;;;;;;4.50;2.60;;;25.80;53.70;;;32.45;32.47;102514.91;5115903;28;20195;-63
2022/08/08 08:09:23;;;;;;;3.50;2.00;;;26.50;51.40;;;33.47;30.81;102505.97;5114808;28;20196;-65
2022/08/08 08:11:55;;;;;;;5.50;2.70;;;27.30;49.40;;;34.40;29.02;102514.69;5114764;28;20215;-64
2022/08/08 08:14:33;;;;;;;2.80;1.93;;;27.90;47.10;;;35.13;27.65;102519.81;5114444;28;20192;-64
2022/08/08 08:17:01;;;;;;;3.37;1.90;;;28.60;44.60;;;35.75;26.25;102515.84;5114960;28;20267;-64
2022/08/08 08:19:33;;;;;;;7.07;6.10;;;29.20;43.40;;;36.33;25.46;102513.41;5114471;27;20263;-64
2022/08/08 08:22:12;;;;;;;4.13;2.67;;;29.70;42.30;;;37.00;25.45;102522.75;5114429;28;20287;-64
2022/08/08 08:24:42;;;;;;;7.00;3.87;;;30.40;40.40;;;37.44;23.16;102516.53;5114964;28;20319;-65
2022/08/08 08:27:13;;;;;;;2.20;1.80;;;30.80;36.20;;;37.69;22.70;102513.13;5103627;28;20203;-64
2022/08/08 08:29:43;;;;;;;8.73;6.07;;;31.20;35.90;;;37.98;22.44;102519.00;5094450;28;20276;-64
2022/08/08 08:32:18;;;;;;;3.17;2.60;;;31.50;35.60;;;38.60;22.41;102520.56;5111645;28;20276;-65
2022/08/08 08:35:04;;;;;;;1.85;1.70;;;32.00;35.60;;;39.39;21.22;102512.09;5115401;28;20195;-64
2022/08/08 08:37:33;;;;;;;4.35;2.40;;;32.30;33.10;;;39.62;20.47;102516.28;5115219;28;20196;-64
2022/08/08 08:40:23;;;;;;;3.92;2.65;;;32.60;33.20;;;39.92;21.04;102519.16;5115016;28;20188;-65
2022/08/08 08:42:53;;;;;;;5.47;2.92;;;33.00;32.50;;;40.45;20.06;102522.19;5106968;28;20311;-64
2022/08/08 08:45:23;;;;;;;4.75;3.17;;;33.30;32.50;;;41.03;19.41;102526.88;5094815;28;20598;-64
2022/08/08 08:47:54;;;;;;;4.07;2.35;;;33.70;32.20;;;41.64;19.04;102530.72;5094207;28;20184;-64
2022/08/08 08:50:29;;;;;;;2.80;2.35;;;34.10;31.10;;;41.91;18.88;102532.91;5125095;27;20182;-65
2022/08/08 08:53:04;;;;;;;5.20;2.28;;;34.40;30.60;;;42.09;18.34;102522.41;5129297;27;20215;-65
2022/08/08 08:55:55;;;;;;;3.40;2.05;;;34.60;29.50;;;42.08;18.44;102524.34;5114573;28;20249;-64
2022/08/08 08:58:34;;;;;;;2.30;2.10;;;34.80;29.20;;;42.27;18.00;102527.41;5113476;28;20195;-65
2022/08/08 09:01:05;;;;;;;4.65;2.25;;;34.90;29.20;;;42.72;18.08;102532.03;5112204;28;20226;-64
2022/08/08 09:03:43;;;;;;;3.17;1.92;;;35.20;29.10;;;42.96;17.60;102532.78;5113943;28;20597;-64
2022/08/08 09:06:20;;;;;;;2.38;2.17;;;35.40;28.40;;;43.03;17.42;102535.75;5113646;28;20188;-64
2022/08/08 09:09:04;;;;;;;1.90;1.80;;;35.60;28.20;;;42.83;17.01;102538.69;5113556;28;20203;-64
2022/08/08 09:11:50;;;;;;;1.80;1.70;;;35.70;27.10;;;42.22;17.53;102535.94;5113080;28;20231;-64
2022/08/08 09:14:37;;;;;;;3.80;2.53;;;35.60;27.10;;;41.89;17.84;102532.41;5112894;28;20225;-65
2022/08/08 09:17:10;;;;;;;4.15;2.30;;;35.40;27.50;;;41.77;18.18;102537.94;5114047;28;20643;-65
2022/08/08 09:19:45;;;;;;;3.50;1.88;;;35.30;27.80;;;41.69;17.76;102538.84;5113898;28;20648;-63
2022/08/08 09:22:35;;;;;;;2.25;1.75;;;35.20;27.80;;;41.36;18.01;102532.47;5113474;28;20215;-65
2022/08/08 09:25:07;;;;;;;2.13;1.92;;;35.10;27.80;;;41.16;18.34;102534.88;5114481;28;20298;-65
2022/08/08 09:27:39;;;;;;;3.70;1.77;;;35.10;28.00;;;41.35;17.95;102525.31;5113806;28;20617;-64
2022/08/08 09:30:26;;;;;;;2.60;1.90;;;35.00;27.90;;;41.88;17.65;102528.03;5112840;28;20199;-65
2022/08/08 09:32:57;;;;;;;2.22;1.55;;;35.00;28.00;;;42.15;17.42;102519.06;5113411;28;20282;-64
2022/08/08 09:35:51;;;;;;;2.40;1.70;;;35.20;27.60;;;42.38;17.33;102523.03;5113891;28;20184;-64
2022/08/08 09:38:41;;;;;;;3.90;2.88;;;35.40;27.50;;;42.61;16.81;102526.13;5113703;28;20180;-64
2022/08/08 09:41:36;;;;;;;2.88;2.00;;;35.50;26.90;;;42.91;16.67;102518.38;5111789;27;20204;-64
2022/08/08 09:44:42;;;;;;;4.55;2.28;;;35.70;27.00;;;43.62;16.15;102521.19;5113646;28;20187;-63
2022/08/08 09:47:13;;;;;;;2.55;1.85;;;35.90;26.60;;;44.24;15.64;102521.22;5099081;28;20676;-64
2022/08/08 09:50:06;;;;;;;3.67;2.10;;;36.10;26.50;;;44.56;15.23;102516.44;5117273;27;20195;-63
2022/08/08 09:52:49;;;;;;;3.35;2.03;;;36.40;25.60;;;44.76;14.34;102522.84;5130277;27;20219;-63
2022/08/08 09:55:30;;;;;;;7.18;6.45;;;36.50;24.90;;;44.68;14.30;102516.31;5113188;28;20176;-63
2022/08/08 09:58:20;;;;;;;1.80;1.70;;;36.70;24.70;;;44.92;14.63;102524.44;5112631;28;20253;-62
2022/08/08 10:01:09;;;;;;;1.85;1.75;;;36.90;24.30;;;45.25;13.77;102509.22;5112471;28;20168;-64
2022/08/08 10:03:58;;;;;;;2.50;2.20;;;37.10;24.20;;;45.47;13.96;102511.22;5113446;28;20195;-64
2022/08/08 10:06:31;;;;;;;3.47;2.40;;;37.30;24.10;;;45.50;13.95;102510.50;5113706;28;20229;-65
2022/08/08 10:09:02;;;;;;;2.63;1.95;;;37.40;23.60;;;45.42;13.87;102519.88;5113469;28;20206;-64
2022/08/08 10:11:31;;;;;;;2.63;2.17;;;37.40;24.20;;;45.58;14.29;102510.25;5112714;28;20644;-64
2022/08/08 10:14:19;;;;;;;3.03;2.15;;;37.60;24.10;;;46.10;13.28;102512.38;5112120;28;20187;-64
2022/08/08 10:17:04;;;;;;;2.28;2.17;;;37.80;24.10;;;46.46;13.62;102508.16;5113103;28;20196;-65
2022/08/08 10:19:58;;;;;;;2.53;2.30;;;38.00;23.70;;;46.96;12.98;102504.06;5115563;28;20192;-65
2022/08/08 10:22:27;;;;;;;3.45;2.20;;;38.30;23.00;;;47.15;13.08;102501.13;5113536;28;20215;-64
2022/08/08 10:25:03;;;;;;;3.10;2.10;;;38.60;22.90;;;47.37;12.97;102502.94;5113846;28;20267;-64
2022/08/08 10:27:41;;;;;;;1.63;1.50;;;38.80;22.80;;;47.37;12.46;102502.94;5112469;28;20218;-64
2022/08/08 10:30:10;;;;;;;4.93;2.95;;;39.10;22.30;;;47.17;12.36;102503.53;5113464;28;20194;-64
2022/08/08 10:33:00;;;;;;;4.53;2.08;;;39.10;22.10;;;45.69;13.33;102513.25;5112724;28;20516;-64
2022/08/08 10:35:30;;;;;;;2.50;2.10;;;38.90;22.40;;;43.97;14.30;102510.22;5112045;28;20184;-66
2022/08/08 10:38:19;;;;;;;3.22;2.60;;;38.40;22.00;;;42.31;15.26;102499.81;5113797;28;20248;-65
2022/08/08 10:40:51;;;;;;;3.05;2.22;;;37.60;22.50;;;41.23;16.70;102498.38;5112413;28;20242;-65
2022/08/08 10:43:20;;;;;;;4.03;2.90;;;37.00;23.30;;;40.33;16.73;102506.31;5100812;28;20238;-65
2022/08/08 10:45:49;;;;;;;6.55;2.70;;;36.30;23.60;;;39.49;17.69;102505.44;5097135;28;20273;-63
2022/08/08 10:48:33;;;;;;;2.95;2.60;;;35.70;24.10;;;38.52;18.38;102499.31;5096255;28;20192;-64
2022/08/08 10:51:23;;;;;;;5.03;2.58;;;35.00;24.60;;;37.69;19.37;102499.38;5096152;28;20293;-65
2022/08/08 10:53:54;;;;;;;3.83;3.38;;;34.40;25.30;;;37.11;19.54;102502.97;5109389;28;20203;-63
2022/08/08 10:56:32;;;;;;;4.07;2.78;;;33.80;26.00;;;36.51;20.02;102505.13;5116558;28;20192;-65
2022/08/08 10:59:09;;;;;;;5.35;4.10;;;33.30;26.50;;;35.94;20.91;102500.16;5116418;28;20215;-65
2022/08/08 11:01:46;;;;;;;4.00;3.30;;;32.80;27.10;;;35.22;21.99;102509.81;5095231;28;20234;-64
2022/08/08 11:04:23;;;;;;;3.37;2.70;;;32.20;28.60;;;34.54;23.40;102507.41;5095807;28;20246;-63
2022/08/08 11:06:59;;;;;;;3.83;3.13;;;31.70;30.00;;;33.89;24.55;102508.09;5096052;28;20600;-65
2022/08/08 11:09:28;;;;;;;5.27;3.50;;;31.10;31.40;;;33.38;25.38;102503.00;5113593;28;20195;-64
2022/08/08 11:12:01;;;;;;;4.30;3.90;;;30.70;32.20;;;32.93;26.27;102511.44;5115283;28;20618;-65
2022/08/08 11:14:52;;;;;;;4.50;3.17;;;30.30;33.30;;;32.52;26.30;102510.00;5116547;28;20535;-64
2022/08/08 11:17:23;;;;;;;3.03;2.00;;;29.80;33.70;;;32.30;27.18;102496.69;5115393;28;20199;-63
2022/08/08 11:20:14;;;;;;;3.03;2.50;;;29.60;34.60;;;32.06;28.05;102501.91;5116530;28;20585;-63
2022/08/08 11:22:50;;;;;;;3.60;2.60;;;29.30;35.80;;;31.90;28.19;102502.19;5117182;27;20199;-65
2022/08/08 11:25:22;;;;;;;4.70;2.23;;;29.00;36.20;;;31.79;27.63;102498.63;5116630;28;20696;-64
2022/08/08 11:28:12;;;;;;;2.17;1.60;;;28.80;36.50;;;31.70;28.85;102505.72;5116758;28;20214;-63
2022/08/08 11:30:40;;;;;;;4.57;2.40;;;28.70;37.00;;;31.62;28.17;102502.75;5116044;28;20188;-64